Time,TemperatureF,DewpointF,PressureIn,WindDirection,WindDirectionDegrees,WindSpeedMPH,WindSpeedGustMPH,Humidity,HourlyPrecipIn,Conditions,Clouds,dailyrainin,SoftwareType,DateUTC
2013-08-24 00:11:00,60.0,46.0,29.65,ESE,113,0.0,-999.0,60,-99.99,,,-99.99,,2013-08-24 07:11:00,
2013-08-24 00:22:00,59.0,46.0,29.66,ESE,113,0.0,-999.0,62,-99.99,,,-99.99,,2013-08-24 07:22:00,
2013-08-24 00:42:00,59.0,46.0,29.66,ESE,113,0.0,-999.0,61,-99.99,,,-99.99,,2013-08-24 07:42:00,
2013-08-24 00:53:00,59.0,46.0,29.66,ESE,113,0.0,-999.0,62,-99.99,,,-99.99,,2013-08-24 07:53:00,
2013-08-24 01:12:00,59.0,47.0,29.67,ESE,113,0.0,-999.0,65,-99.99,,,-99.99,,2013-08-24 08:12:00,
2013-08-24 01:22:00,59.0,47.0,29.67,ESE,113,0.0,-999.0,64,-99.99,,,-99.99,,2013-08-24 08:22:00,
2013-08-24 01:52:00,58.0,45.0,29.68,ESE,113,0.0,-999.0,62,-99.99,,,-99.99,,2013-08-24 08:52:00,
2013-08-24 02:11:00,57.0,45.0,29.68,ESE,113,0.0,-999.0,64,-99.99,,,-99.99,,2013-08-24 09:11:00,
2013-08-24 02:22:00,57.0,43.0,29.67,ESE,113,0.0,-999.0,60,-99.99,,,-99.99,,2013-08-24 09:22:00,
2013-08-24 02:44:00,57.0,43.0,29.67,ESE,113,0.0,-999.0,60,-99.99,,,-99.99,,2013-08-24 09:44:00,
2013-08-24 02:53:00,57.0,44.0,29.68,ESE,113,0.0,-999.0,61,-99.99,,,-99.99,,2013-08-24 09:53:00,
2013-08-24 03:13:00,57.0,45.0,29.68,ESE,113,0.0,-999.0,63,-99.99,,,-99.99,,2013-08-24 10:13:00,
2013-08-24 03:23:00,57.0,43.0,29.67,ESE,113,0.0,-999.0,60,-99.99,,,-99.99,,2013-08-24 10:23:00,
2013-08-24 03:42:00,56.0,43.0,29.67,ESE,113,0.0,-999.0,61,-99.99,,,-99.99,,2013-08-24 10:42:00,
2013-08-24 03:53:00,56.0,44.0,29.67,ESE,113,0.0,-999.0,65,-99.99,,,-99.99,,2013-08-24 10:53:00,
2013-08-24 04:11:00,56.0,44.0,29.67,ESE,113,0.0,-999.0,63,-99.99,,,-99.99,,2013-08-24 11:11:00,
2013-08-24 04:22:00,56.0,45.0,29.67,ESE,113,0.0,-999.0,66,-99.99,,,-99.99,,2013-08-24 11:22:00,
2013-08-24 04:52:00,56.0,45.0,29.67,ESE,113,0.0,-999.0,66,-99.99,,,-99.99,,2013-08-24 11:52:00,
2013-08-24 05:11:00,55.0,43.0,29.67,ESE,113,0.0,-999.0,65,-99.99,,,-99.99,,2013-08-24 12:11:00,
2013-08-24 05:21:00,55.0,43.0,29.66,ESE,113,0.0,-999.0,63,-99.99,,,-99.99,,2013-08-24 12:21:00,
2013-08-24 05:41:00,55.0,42.0,29.67,ESE,113,0.0,-999.0,62,-99.99,,,-99.99,,2013-08-24 12:41:00,
2013-08-24 05:52:00,54.0,42.0,29.67,ESE,113,0.0,-999.0,63,-99.99,,,-99.99,,2013-08-24 12:52:00,
2013-08-24 06:11:00,54.0,43.0,29.67,ESE,113,0.0,-999.0,65,-99.99,,,-99.99,,2013-08-24 13:11:00,
2013-08-24 06:22:00,54.0,41.0,29.67,ESE,113,0.0,-999.0,61,-99.99,,,-99.99,,2013-08-24 13:22:00,
2013-08-24 06:52:00,54.0,42.0,29.67,ESE,113,0.0,-999.0,63,-99.99,,,-99.99,,2013-08-24 13:52:00,
2013-08-24 07:11:00,55.0,43.0,29.67,ESE,113,0.0,-999.0,64,-99.99,,,-99.99,,2013-08-24 14:11:00,
2013-08-24 07:21:00,55.0,43.0,29.67,ESE,113,0.0,-999.0,65,-99.99,,,-99.99,,2013-08-24 14:21:00,
2013-08-24 07:52:00,55.0,46.0,29.68,ESE,113,0.0,-999.0,72,-99.99,,,-99.99,,2013-08-24 14:52:00,
2013-08-24 08:11:00,57.0,48.0,29.69,ESE,113,0.0,-999.0,72,-99.99,,,-99.99,,2013-08-24 15:11:00,
2013-08-24 08:21:00,58.0,48.0,29.69,ESE,113,0.0,-999.0,69,-99.99,,,-99.99,,2013-08-24 15:21:00,
2013-08-24 08:54:00,61.0,50.0,29.69,ESE,113,0.0,-999.0,67,-99.99,,,-99.99,,2013-08-24 15:54:00,
2013-08-24 09:13:00,62.0,51.0,29.70,ESE,113,0.0,-999.0,66,-99.99,,,-99.99,,2013-08-24 16:13:00,
2013-08-24 09:23:00,63.0,51.0,29.69,ESE,113,0.0,-999.0,64,-99.99,,,-99.99,,2013-08-24 16:23:00,
2013-08-24 09:53:00,65.0,52.0,29.70,ESE,113,0.0,-999.0,62,-99.99,,,-99.99,,2013-08-24 16:53:00,
2013-08-24 10:12:00,67.0,53.0,29.70,ESE,108,0.0,-999.0,60,-99.99,,,-99.99,,2013-08-24 17:12:00,
2013-08-24 10:23:00,69.0,53.0,29.70,ESE,102,0.0,-999.0,56,-99.99,,,-99.99,,2013-08-24 17:23:00,
2013-08-24 10:42:00,71.0,54.0,29.70,ESE,109,0.0,-999.0,56,-99.99,,,-99.99,,2013-08-24 17:42:00,
2013-08-24 10:52:00,73.0,54.0,29.70,ENE,67,0.0,-999.0,51,-99.99,,,-99.99,,2013-08-24 17:52:00,
2013-08-24 11:13:00,75.0,52.0,29.70,East,96,0.0,-999.0,45,-99.99,,,-99.99,,2013-08-24 18:13:00,
2013-08-24 11:22:00,78.0,55.0,29.70,East,82,0.0,-999.0,45,-99.99,,,-99.99,,2013-08-24 18:22:00,
2013-08-24 11:42:00,80.0,55.0,29.69,East,90,0.0,-999.0,43,-99.99,,,-99.99,,2013-08-24 18:42:00,
2013-08-24 11:53:00,83.0,57.0,29.69,East,84,0.0,-999.0,41,-99.99,,,-99.99,,2013-08-24 18:53:00,
2013-08-24 12:12:00,84.0,56.0,29.68,East,98,0.0,-999.0,39,-99.99,,,-99.99,,2013-08-24 19:12:00,
2013-08-24 12:21:00,86.0,57.0,29.68,East,86,0.0,-999.0,37,-99.99,,,-99.99,,2013-08-24 19:21:00,
2013-08-24 12:52:00,89.0,57.0,29.67,ESE,117,0.0,-999.0,34,-99.99,,,-99.99,,2013-08-24 19:52:00,
2013-08-24 13:11:00,90.0,56.0,29.66,NNE,20,0.0,-999.0,32,-99.99,,,-99.99,,2013-08-24 20:11:00,
2013-08-24 13:22:00,91.0,59.0,29.66,NE,55,0.0,-999.0,34,-99.99,,,-99.99,,2013-08-24 20:22:00,
2013-08-24 13:52:00,91.0,58.0,29.65,ESE,106,1.0,-999.0,33,-99.99,,,-99.99,,2013-08-24 20:52:00,
2013-08-24 14:22:00,92.0,60.0,29.65,North,355,1.0,-999.0,34,-99.99,,,-99.99,,2013-08-24 21:22:00,
2013-08-24 14:55:00,90.0,58.0,29.64,ENE,67,1.0,-999.0,34,-99.99,,,-99.99,,2013-08-24 21:55:00,
2013-08-24 15:13:00,90.0,55.0,29.63,SE,131,0.0,-999.0,31,-99.99,,,-99.99,,2013-08-24 22:13:00,
2013-08-24 15:23:00,89.0,55.0,29.63,ESE,113,1.0,-999.0,32,-99.99,,,-99.99,,2013-08-24 22:23:00,
2013-08-24 15:53:00,89.0,53.0,29.62,SE,135,1.0,-999.0,29,-99.99,,,-99.99,,2013-08-24 22:53:00,
2013-08-24 16:12:00,88.0,50.0,29.62,ESE,121,0.0,-999.0,27,-99.99,,,-99.99,,2013-08-24 23:12:00,
2013-08-24 16:22:00,88.0,51.0,29.62,NNE,15,1.0,-999.0,28,-99.99,,,-99.99,,2013-08-24 23:22:00,
2013-08-24 16:42:00,88.0,54.0,29.61,SE,140,0.0,-999.0,31,-99.99,,,-99.99,,2013-08-24 23:42:00,
2013-08-24 16:53:00,88.0,53.0,29.61,NE,53,0.0,-999.0,30,-99.99,,,-99.99,,2013-08-24 23:53:00,
2013-08-24 17:11:00,88.0,51.0,29.62,ESE,113,0.0,-999.0,28,-99.99,,,-99.99,,2013-08-25 00:11:00,
2013-08-24 17:21:00,86.0,51.0,29.62,ESE,119,1.0,-999.0,30,-99.99,,,-99.99,,2013-08-25 00:21:00,
2013-08-24 17:41:00,86.0,54.0,29.62,ESE,117,0.0,-999.0,34,-99.99,,,-99.99,,2013-08-25 00:41:00,
2013-08-24 17:52:00,85.0,55.0,29.63,East,85,0.0,-999.0,36,-99.99,,,-99.99,,2013-08-25 00:52:00,
2013-08-24 18:11:00,85.0,57.0,29.64,ESE,111,0.0,-999.0,39,-99.99,,,-99.99,,2013-08-25 01:11:00,
2013-08-24 18:22:00,84.0,56.0,29.64,ESE,116,0.0,-999.0,38,-99.99,,,-99.99,,2013-08-25 01:22:00,
2013-08-24 18:42:00,83.0,57.0,29.64,East,101,0.0,-999.0,41,-99.99,,,-99.99,,2013-08-25 01:42:00,
2013-08-24 18:52:00,82.0,57.0,29.64,ESE,121,0.0,-999.0,43,-99.99,,,-99.99,,2013-08-25 01:52:00,
2013-08-24 19:22:00,78.0,57.0,29.65,SE,127,0.0,-999.0,48,-99.99,,,-99.99,,2013-08-25 02:22:00,
2013-08-24 19:42:00,76.0,56.0,29.65,SE,127,0.0,-999.0,50,-99.99,,,-99.99,,2013-08-25 02:42:00,
2013-08-24 19:52:00,75.0,56.0,29.66,SE,127,0.0,-999.0,52,-99.99,,,-99.99,,2013-08-25 02:52:00,
2013-08-24 20:23:00,73.0,55.0,29.67,SE,127,0.0,-999.0,53,-99.99,,,-99.99,,2013-08-25 03:23:00,
2013-08-24 20:54:00,71.0,56.0,29.69,SE,127,0.0,-999.0,59,-99.99,,,-99.99,,2013-08-25 03:54:00,
2013-08-24 21:02:00,-999.0,-99.9,29.70,SE,127,0.0,-999.0,-999,-99.99,,,-99.99,,2013-08-25 04:02:00,
2013-08-24 21:14:00,70.0,54.0,29.70,SE,127,0.0,-999.0,57,-99.99,,,-99.99,,2013-08-25 04:14:00,
2013-08-24 21:25:00,69.0,54.0,29.70,SE,127,0.0,-999.0,59,-99.99,,,-99.99,,2013-08-25 04:25:00,
2013-08-24 21:43:00,67.0,52.0,29.71,SE,127,0.0,-999.0,59,-99.99,,,-99.99,,2013-08-25 04:43:00,
2013-08-24 21:54:00,66.0,52.0,29.72,SE,127,0.0,-999.0,60,-99.99,,,-99.99,,2013-08-25 04:54:00,
2013-08-24 22:12:00,65.0,51.0,29.72,SE,127,0.0,-999.0,61,-99.99,,,-99.99,,2013-08-25 05:12:00,
2013-08-24 22:22:00,64.0,50.0,29.72,SE,127,0.0,-999.0,61,-99.99,,,-99.99,,2013-08-25 05:22:00,
2013-08-24 22:52:00,63.0,49.0,29.72,SE,127,0.0,-999.0,60,-99.99,,,-99.99,,2013-08-25 05:52:00,
2013-08-24 23:12:00,63.0,48.0,29.71,SE,127,0.0,-999.0,59,-99.99,,,-99.99,,2013-08-25 06:12:00,
2013-08-24 23:21:00,62.0,47.0,29.72,SE,127,0.0,-999.0,58,-99.99,,,-99.99,,2013-08-25 06:21:00,
2013-08-24 23:43:00,62.0,47.0,29.72,SE,127,0.0,-999.0,58,-99.99,,,-99.99,,2013-08-25 06:43:00,
2013-08-24 23:52:00,61.0,47.0,29.72,SE,127,0.0,-999.0,59,-99.99,,,-99.99,,2013-08-25 06:52:00,